createdAt,value
2023-01-23T00:00:09.528Z,12.70
2023-01-23T00:06:55.127Z,13.00
2023-01-23T00:13:37.696Z,13.25
2023-01-23T00:20:20.433Z,12.98
2023-01-23T00:27:03.057Z,11.45
2023-01-23T00:33:46.178Z,12.02
2023-01-23T00:40:28.565Z,11.60
2023-01-23T00:47:10.908Z,12.60
2023-01-23T00:53:53.304Z,11.50
2023-01-23T01:00:39.146Z,10.98
2023-01-23T01:07:21.491Z,12.63
2023-01-23T01:14:04.602Z,11.18
2023-01-23T01:20:47.119Z,10.27
2023-01-23T01:27:29.411Z,10.73
2023-01-23T01:34:13.944Z,12.82
2023-01-23T01:40:57.201Z,12.07
2023-01-23T01:47:39.483Z,11.88
2023-01-23T01:54:43.542Z,12.82
2023-01-23T02:01:26.630Z,12.35
2023-01-23T02:08:32.539Z,12.80
2023-01-23T02:15:16.098Z,12.00
2023-01-23T02:22:14.484Z,12.50
2023-01-23T02:28:57.339Z,10.50
2023-01-23T02:35:43.224Z,11.30
2023-01-23T02:42:27.249Z,11.90
2023-01-23T02:49:10.634Z,11.57
2023-01-23T02:55:53.933Z,12.93
2023-01-23T03:02:39.249Z,11.88
2023-01-23T03:09:25.253Z,11.38
2023-01-23T03:16:08.437Z,12.75
2023-01-23T03:22:50.828Z,12.85
2023-01-23T03:29:51.796Z,11.48
2023-01-23T03:36:37.258Z,12.32
2023-01-23T03:43:19.647Z,12.27
2023-01-23T03:50:06.032Z,12.43
2023-01-23T03:56:52.189Z,12.88
2023-01-23T04:04:00.696Z,12.85
2023-01-23T04:10:43.504Z,12.48
2023-01-23T04:17:31.023Z,12.40
2023-01-23T04:24:13.414Z,13.07
2023-01-23T04:30:55.944Z,11.80
2023-01-23T04:37:44.729Z,12.52
2023-01-23T04:44:27.521Z,12.50
2023-01-23T04:51:28.420Z,12.98
2023-01-23T04:58:11.549Z,12.80
2023-01-23T05:04:54.201Z,12.88
2023-01-23T05:11:37.162Z,13.10
2023-01-23T05:18:20.121Z,12.05
2023-01-23T05:25:03.959Z,12.57
2023-01-23T05:31:47.000Z,12.02
2023-01-23T05:39:01.260Z,13.13
2023-01-23T05:45:45.622Z,14.35
2023-01-23T05:52:38.679Z,12.30
2023-01-23T05:59:21.611Z,13.35
2023-01-23T06:06:16.989Z,11.90
2023-01-23T06:12:59.399Z,13.07
2023-01-23T06:19:42.368Z,12.02
2023-01-23T06:26:25.708Z,12.45
2023-01-23T06:33:09.022Z,12.45
2023-01-23T06:39:56.432Z,11.68
2023-01-23T06:46:38.989Z,13.05
2023-01-23T06:53:22.407Z,13.30
2023-01-23T07:00:08.317Z,14.60
2023-01-23T07:06:50.963Z,13.00
2023-01-23T07:13:35.478Z,13.30
2023-01-23T07:20:19.713Z,12.05
2023-01-23T07:27:08.877Z,12.23
2023-01-23T07:33:51.651Z,13.88
2023-01-23T07:40:33.952Z,14.05
2023-01-23T07:47:16.414Z,13.80
2023-01-23T07:53:59.060Z,15.18
2023-01-23T08:00:42.202Z,14.20
2023-01-23T08:07:24.639Z,14.13
2023-01-23T08:14:07.100Z,14.57
2023-01-23T08:20:57.102Z,13.32
2023-01-23T08:27:39.700Z,13.75
2023-01-23T08:34:23.951Z,13.70
2023-01-23T08:41:06.813Z,13.32
2023-01-23T08:47:49.231Z,11.70
2023-01-23T08:54:32.091Z,12.05
2023-01-23T09:01:17.196Z,12.18
2023-01-23T09:08:02.715Z,10.68
2023-01-23T09:14:45.024Z,10.60
2023-01-23T09:21:27.303Z,6.80
2023-01-23T09:28:09.924Z,8.25
2023-01-23T09:34:52.289Z,9.27
2023-01-23T09:41:34.784Z,8.68
2023-01-23T09:48:30.846Z,10.27
2023-01-23T09:55:31.588Z,10.10
2023-01-23T10:02:20.143Z,10.07
2023-01-23T10:09:21.289Z,9.65
2023-01-23T10:16:25.545Z,9.10
2023-01-23T10:23:46.472Z,9.32
2023-01-23T10:30:35.106Z,8.80
2023-01-23T10:37:32.289Z,10.55
2023-01-23T10:44:20.162Z,9.70
2023-01-23T10:51:04.216Z,8.85
2023-01-23T10:57:49.125Z,9.38
2023-01-23T11:04:36.487Z,10.68
2023-01-23T11:11:25.254Z,8.00
2023-01-23T11:18:31.617Z,9.30
2023-01-23T11:25:34.154Z,9.88
2023-01-23T11:32:17.326Z,10.68
2023-01-23T11:39:36.246Z,9.63
2023-01-23T11:46:38.387Z,10.30
2023-01-23T11:53:45.463Z,11.10
2023-01-23T12:00:43.883Z,10.45
2023-01-23T12:07:26.800Z,10.73
2023-01-23T12:14:28.059Z,10.77
2023-01-23T12:21:25.095Z,10.27
2023-01-23T12:28:31.043Z,11.60
2023-01-23T12:35:35.174Z,10.73
2023-01-23T12:42:53.030Z,11.75
2023-01-23T12:49:58.618Z,9.98
2023-01-23T12:56:41.875Z,11.32
2023-01-23T13:03:56.374Z,10.65
2023-01-23T13:11:23.281Z,10.85
2023-01-23T13:18:06.261Z,10.88
2023-01-23T13:25:12.943Z,9.50
2023-01-23T13:32:25.381Z,9.75
2023-01-23T13:39:16.333Z,9.43
2023-01-23T13:45:59.181Z,9.05
2023-01-23T14:22:06.350Z,9.10
2023-01-23T14:29:19.857Z,9.38
2023-01-23T14:36:02.241Z,8.68
2023-01-23T14:42:45.393Z,9.10
2023-01-23T14:49:33.581Z,11.27
2023-01-23T14:56:16.140Z,9.75
2023-01-23T15:02:58.558Z,11.20
2023-01-23T15:09:45.802Z,11.70
2023-01-23T15:16:33.909Z,10.15
2023-01-23T15:23:19.282Z,7.82
2023-01-23T15:30:35.566Z,9.98
2023-01-23T15:37:26.637Z,11.55
2023-01-23T15:44:17.718Z,11.60
2023-01-23T15:51:00.117Z,14.52
2023-01-23T15:57:43.330Z,11.57
2023-01-23T16:04:25.627Z,11.50
2023-01-23T16:11:07.906Z,10.65
2023-01-23T16:17:50.646Z,10.73
2023-01-23T16:24:39.271Z,11.02
2023-01-23T16:31:22.467Z,11.25
2023-01-23T16:38:06.109Z,11.38
2023-01-23T16:44:49.189Z,11.15
2023-01-23T16:51:34.982Z,11.68
2023-01-23T16:58:24.295Z,13.98
2023-01-23T17:05:07.208Z,16.02
2023-01-23T17:11:55.800Z,11.68
2023-01-23T17:18:38.212Z,12.20
2023-01-23T17:25:26.714Z,13.32
2023-01-23T17:32:36.542Z,12.32
2023-01-23T17:39:20.525Z,12.50
2023-01-23T17:46:05.119Z,12.93
2023-01-23T17:52:48.668Z,13.38
2023-01-23T17:59:31.859Z,16.58
2023-01-23T18:06:14.283Z,19.83
2023-01-23T18:13:08.483Z,16.42
2023-01-23T18:19:53.777Z,15.23
2023-01-23T18:26:56.323Z,15.60
2023-01-23T18:33:49.631Z,14.52
2023-01-23T18:40:59.147Z,14.65
2023-01-23T18:47:41.665Z,14.25
2023-01-23T18:54:54.301Z,14.82
2023-01-23T19:01:53.569Z,13.75
2023-01-23T19:08:36.232Z,14.45
2023-01-23T19:15:40.371Z,13.45
2023-01-23T19:22:24.149Z,14.10
2023-01-23T19:29:20.989Z,13.43
2023-01-23T19:36:08.934Z,13.45
2023-01-23T19:43:08.842Z,13.70
2023-01-23T19:49:55.719Z,13.93
2023-01-23T19:56:39.082Z,13.13
2023-01-23T20:03:21.435Z,12.65
2023-01-23T20:10:05.062Z,12.55
2023-01-23T20:16:47.547Z,12.48
2023-01-23T20:23:30.602Z,15.63
2023-01-23T20:30:18.673Z,12.30
2023-01-23T20:37:01.075Z,12.48
2023-01-23T20:43:44.392Z,13.52
2023-01-23T20:50:26.823Z,13.00
2023-01-23T20:57:09.276Z,12.32
2023-01-23T21:03:51.686Z,12.73
2023-01-23T21:10:34.010Z,14.50
2023-01-23T21:17:16.376Z,12.18
2023-01-23T21:23:58.895Z,13.95
2023-01-23T21:30:41.385Z,12.60
2023-01-23T21:37:24.402Z,12.73
2023-01-23T21:44:07.179Z,13.23
2023-01-23T21:50:49.678Z,13.48
2023-01-23T21:57:32.060Z,13.90
2023-01-23T22:04:18.495Z,12.55
2023-01-23T22:11:00.848Z,13.05
2023-01-23T22:17:43.163Z,13.27
2023-01-23T22:24:25.909Z,12.95
2023-01-23T22:31:14.527Z,13.18
2023-01-23T22:37:56.938Z,13.60
2023-01-23T22:44:40.040Z,13.55
2023-01-23T22:51:25.132Z,12.80
2023-01-23T22:58:07.427Z,13.63
2023-01-23T23:04:49.985Z,13.85
2023-01-23T23:11:32.601Z,14.38
2023-01-23T23:18:15.094Z,14.00
2023-01-23T23:24:57.369Z,13.48
2023-01-23T23:31:40.113Z,14.52
2023-01-23T23:38:23.425Z,15.25
2023-01-23T23:45:08.494Z,13.82
2023-01-23T23:51:51.133Z,15.10
2023-01-23T23:58:37.614Z,14.77
